sensor_id;sensor_type;location;lat;lon;timestamp;P1;durP1;ratioP1;P2;durP2;ratioP2
22388;SDS011;11362;48.102;11.620;2023-03-11T00:01:53;0.47;;;0.37;;
22388;SDS011;11362;48.102;11.620;2023-03-11T00:04:18;0.73;;;0.50;;
22388;SDS011;11362;48.102;11.620;2023-03-11T00:06:44;1.07;;;0.60;;
22388;SDS011;11362;48.102;11.620;2023-03-11T00:09:09;1.93;;;0.60;;
22388;SDS011;11362;48.102;11.620;2023-03-11T00:11:34;0.40;;;0.40;;
22388;SDS011;11362;48.102;11.620;2023-03-11T00:14:00;1.33;;;0.60;;
22388;SDS011;11362;48.102;11.620;2023-03-11T00:16:25;0.47;;;0.43;;
22388;SDS011;11362;48.102;11.620;2023-03-11T00:18:50;0.50;;;0.40;;
22388;SDS011;11362;48.102;11.620;2023-03-11T00:21:16;0.40;;;0.40;;
22388;SDS011;11362;48.102;11.620;2023-03-11T00:23:42;0.50;;;0.50;;
22388;SDS011;11362;48.102;11.620;2023-03-11T00:26:07;0.30;;;0.30;;
22388;SDS011;11362;48.102;11.620;2023-03-11T00:28:32;1.73;;;0.50;;
22388;SDS011;11362;48.102;11.620;2023-03-11T00:30:58;0.30;;;0.30;;
22388;SDS011;11362;48.102;11.620;2023-03-11T00:33:23;0.30;;;0.30;;
22388;SDS011;11362;48.102;11.620;2023-03-11T00:35:49;0.50;;;0.50;;
22388;SDS011;11362;48.102;11.620;2023-03-11T00:38:15;1.10;;;0.63;;
22388;SDS011;11362;48.102;11.620;2023-03-11T00:40:41;0.73;;;0.53;;
22388;SDS011;11362;48.102;11.620;2023-03-11T00:43:08;1.40;;;0.30;;
22388;SDS011;11362;48.102;11.620;2023-03-11T00:45:33;0.77;;;0.30;;
22388;SDS011;11362;48.102;11.620;2023-03-11T00:47:59;0.90;;;0.40;;
22388;SDS011;11362;48.102;11.620;2023-03-11T00:50:28;0.60;;;0.40;;
22388;SDS011;11362;48.102;11.620;2023-03-11T00:52:55;0.30;;;0.30;;
22388;SDS011;11362;48.102;11.620;2023-03-11T00:55:22;0.40;;;0.40;;
22388;SDS011;11362;48.102;11.620;2023-03-11T00:57:57;0.20;;;0.20;;
22388;SDS011;11362;48.102;11.620;2023-03-11T01:00:25;1.43;;;0.33;;
22388;SDS011;11362;48.102;11.620;2023-03-11T01:02:52;0.20;;;0.20;;
22388;SDS011;11362;48.102;11.620;2023-03-11T01:05:19;0.20;;;0.20;;
22388;SDS011;11362;48.102;11.620;2023-03-11T01:07:46;0.40;;;0.30;;
22388;SDS011;11362;48.102;11.620;2023-03-11T01:10:12;0.50;;;0.40;;
22388;SDS011;11362;48.102;11.620;2023-03-11T01:12:38;0.13;;;0.13;;
22388;SDS011;11362;48.102;11.620;2023-03-11T01:15:04;0.30;;;0.30;;
22388;SDS011;11362;48.102;11.620;2023-03-11T01:17:30;0.40;;;0.40;;
22388;SDS011;11362;48.102;11.620;2023-03-11T01:19:56;1.77;;;0.50;;
22388;SDS011;11362;48.102;11.620;2023-03-11T01:22:21;0.53;;;0.37;;
22388;SDS011;11362;48.102;11.620;2023-03-11T01:24:47;0.73;;;0.40;;
22388;SDS011;11362;48.102;11.620;2023-03-11T01:27:12;0.60;;;0.23;;
22388;SDS011;11362;48.102;11.620;2023-03-11T01:29:37;0.17;;;0.17;;
22388;SDS011;11362;48.102;11.620;2023-03-11T01:32:03;1.13;;;0.30;;
22388;SDS011;11362;48.102;11.620;2023-03-11T01:34:28;0.23;;;0.23;;
22388;SDS011;11362;48.102;11.620;2023-03-11T01:36:54;0.30;;;0.30;;
22388;SDS011;11362;48.102;11.620;2023-03-11T01:39:19;0.50;;;0.33;;
22388;SDS011;11362;48.102;11.620;2023-03-11T01:41:44;0.47;;;0.30;;
22388;SDS011;11362;48.102;11.620;2023-03-11T01:44:10;0.57;;;0.30;;
22388;SDS011;11362;48.102;11.620;2023-03-11T01:47:17;0.30;;;0.30;;
22388;SDS011;11362;48.102;11.620;2023-03-11T01:49:21;0.30;;;0.30;;
22388;SDS011;11362;48.102;11.620;2023-03-11T01:51:47;0.37;;;0.30;;
22388;SDS011;11362;48.102;11.620;2023-03-11T01:54:15;0.30;;;0.30;;
22388;SDS011;11362;48.102;11.620;2023-03-11T01:56:44;0.27;;;0.23;;
22388;SDS011;11362;48.102;11.620;2023-03-11T01:59:11;0.30;;;0.30;;
22388;SDS011;11362;48.102;11.620;2023-03-11T02:01:51;0.20;;;0.20;;
22388;SDS011;11362;48.102;11.620;2023-03-11T02:04:23;0.20;;;0.20;;
22388;SDS011;11362;48.102;11.620;2023-03-11T02:06:49;0.30;;;0.30;;
22388;SDS011;11362;48.102;11.620;2023-03-11T02:09:15;0.37;;;0.37;;
22388;SDS011;11362;48.102;11.620;2023-03-11T02:11:40;0.20;;;0.20;;
22388;SDS011;11362;48.102;11.620;2023-03-11T02:14:05;0.40;;;0.40;;
22388;SDS011;11362;48.102;11.620;2023-03-11T02:16:33;0.27;;;0.27;;
22388;SDS011;11362;48.102;11.620;2023-03-11T02:18:59;0.43;;;0.30;;
22388;SDS011;11362;48.102;11.620;2023-03-11T02:21:35;0.27;;;0.27;;
22388;SDS011;11362;48.102;11.620;2023-03-11T02:24:21;0.37;;;0.37;;
22388;SDS011;11362;48.102;11.620;2023-03-11T02:26:55;0.20;;;0.20;;
22388;SDS011;11362;48.102;11.620;2023-03-11T02:29:27;0.80;;;0.20;;
22388;SDS011;11362;48.102;11.620;2023-03-11T02:31:54;0.37;;;0.37;;
22388;SDS011;11362;48.102;11.620;2023-03-11T02:34:27;0.20;;;0.20;;
22388;SDS011;11362;48.102;11.620;2023-03-11T02:36:54;0.33;;;0.33;;
22388;SDS011;11362;48.102;11.620;2023-03-11T02:41:56;0.30;;;0.30;;
22388;SDS011;11362;48.102;11.620;2023-03-11T02:44:22;0.23;;;0.23;;
22388;SDS011;11362;48.102;11.620;2023-03-11T02:46:48;0.40;;;0.30;;
22388;SDS011;11362;48.102;11.620;2023-03-11T02:49:13;1.10;;;0.40;;
22388;SDS011;11362;48.102;11.620;2023-03-11T02:51:40;0.30;;;0.30;;
22388;SDS011;11362;48.102;11.620;2023-03-11T02:54:06;0.50;;;0.30;;
22388;SDS011;11362;48.102;11.620;2023-03-11T02:56:31;0.40;;;0.40;;
22388;SDS011;11362;48.102;11.620;2023-03-11T02:58:57;0.20;;;0.20;;
22388;SDS011;11362;48.102;11.620;2023-03-11T03:01:22;0.40;;;0.40;;
22388;SDS011;11362;48.102;11.620;2023-03-11T03:03:48;0.80;;;0.20;;
22388;SDS011;11362;48.102;11.620;2023-03-11T03:06:13;0.10;;;0.10;;
22388;SDS011;11362;48.102;11.620;2023-03-11T03:08:38;0.20;;;0.20;;
22388;SDS011;11362;48.102;11.620;2023-03-11T03:11:04;0.43;;;0.30;;
22388;SDS011;11362;48.102;11.620;2023-03-11T03:13:29;0.40;;;0.30;;
22388;SDS011;11362;48.102;11.620;2023-03-11T03:15:55;0.33;;;0.30;;
22388;SDS011;11362;48.102;11.620;2023-03-11T03:18:20;0.40;;;0.40;;
22388;SDS011;11362;48.102;11.620;2023-03-11T03:20:46;0.30;;;0.17;;
22388;SDS011;11362;48.102;11.620;2023-03-11T03:23:11;0.10;;;0.10;;
22388;SDS011;11362;48.102;11.620;2023-03-11T03:25:36;0.20;;;0.20;;
22388;SDS011;11362;48.102;11.620;2023-03-11T03:28:01;0.17;;;0.17;;
22388;SDS011;11362;48.102;11.620;2023-03-11T03:30:27;0.63;;;0.33;;
22388;SDS011;11362;48.102;11.620;2023-03-11T03:32:52;0.20;;;0.20;;
22388;SDS011;11362;48.102;11.620;2023-03-11T03:35:18;1.40;;;0.30;;
22388;SDS011;11362;48.102;11.620;2023-03-11T03:37:43;4.03;;;0.77;;
22388;SDS011;11362;48.102;11.620;2023-03-11T03:40:08;4.73;;;0.83;;
22388;SDS011;11362;48.102;11.620;2023-03-11T03:42:34;4.43;;;0.73;;
22388;SDS011;11362;48.102;11.620;2023-03-11T03:45:01;2.30;;;0.50;;
22388;SDS011;11362;48.102;11.620;2023-03-11T03:47:28;2.23;;;0.40;;
22388;SDS011;11362;48.102;11.620;2023-03-11T03:49:53;1.97;;;0.50;;
22388;SDS011;11362;48.102;11.620;2023-03-11T03:52:18;0.30;;;0.30;;
22388;SDS011;11362;48.102;11.620;2023-03-11T03:54:44;5.67;;;0.80;;
22388;SDS011;11362;48.102;11.620;2023-03-11T03:57:09;1.03;;;0.33;;
22388;SDS011;11362;48.102;11.620;2023-03-11T03:59:34;0.83;;;0.50;;
22388;SDS011;11362;48.102;11.620;2023-03-11T04:02:00;0.40;;;0.40;;
22388;SDS011;11362;48.102;11.620;2023-03-11T04:04:25;0.53;;;0.40;;
22388;SDS011;11362;48.102;11.620;2023-03-11T04:06:51;0.50;;;0.50;;
22388;SDS011;11362;48.102;11.620;2023-03-11T04:09:17;1.27;;;0.33;;
22388;SDS011;11362;48.102;11.620;2023-03-11T04:11:42;1.83;;;0.40;;
22388;SDS011;11362;48.102;11.620;2023-03-11T04:14:08;2.77;;;0.63;;
22388;SDS011;11362;48.102;11.620;2023-03-11T04:16:33;0.30;;;0.30;;
22388;SDS011;11362;48.102;11.620;2023-03-11T04:18:58;0.33;;;0.27;;
22388;SDS011;11362;48.102;11.620;2023-03-11T04:21:24;0.53;;;0.33;;
22388;SDS011;11362;48.102;11.620;2023-03-11T04:23:49;0.67;;;0.40;;
22388;SDS011;11362;48.102;11.620;2023-03-11T04:26:14;1.67;;;0.37;;
22388;SDS011;11362;48.102;11.620;2023-03-11T04:28:40;0.40;;;0.30;;
22388;SDS011;11362;48.102;11.620;2023-03-11T04:31:06;0.60;;;0.57;;
22388;SDS011;11362;48.102;11.620;2023-03-11T04:33:31;1.83;;;0.40;;
22388;SDS011;11362;48.102;11.620;2023-03-11T04:35:57;0.33;;;0.33;;
22388;SDS011;11362;48.102;11.620;2023-03-11T04:38:23;1.07;;;0.30;;
22388;SDS011;11362;48.102;11.620;2023-03-11T04:40:48;2.27;;;0.60;;
22388;SDS011;11362;48.102;11.620;2023-03-11T04:43:14;1.50;;;0.40;;
22388;SDS011;11362;48.102;11.620;2023-03-11T04:45:39;0.33;;;0.30;;
22388;SDS011;11362;48.102;11.620;2023-03-11T04:48:05;1.00;;;0.40;;
22388;SDS011;11362;48.102;11.620;2023-03-11T04:50:31;1.93;;;0.70;;
22388;SDS011;11362;48.102;11.620;2023-03-11T04:52:56;1.80;;;0.30;;
22388;SDS011;11362;48.102;11.620;2023-03-11T04:55:21;1.60;;;0.40;;
22388;SDS011;11362;48.102;11.620;2023-03-11T04:57:47;0.50;;;0.20;;
22388;SDS011;11362;48.102;11.620;2023-03-11T05:00:12;2.00;;;0.43;;
22388;SDS011;11362;48.102;11.620;2023-03-11T05:02:40;0.33;;;0.30;;
22388;SDS011;11362;48.102;11.620;2023-03-11T05:05:06;0.60;;;0.30;;
22388;SDS011;11362;48.102;11.620;2023-03-11T05:07:32;2.13;;;0.40;;
22388;SDS011;11362;48.102;11.620;2023-03-11T05:09:58;1.47;;;0.37;;
22388;SDS011;11362;48.102;11.620;2023-03-11T05:12:23;0.77;;;0.33;;
22388;SDS011;11362;48.102;11.620;2023-03-11T05:14:48;0.53;;;0.30;;
22388;SDS011;11362;48.102;11.620;2023-03-11T05:17:13;0.50;;;0.27;;
22388;SDS011;11362;48.102;11.620;2023-03-11T05:19:39;1.27;;;0.20;;
22388;SDS011;11362;48.102;11.620;2023-03-11T05:22:05;0.63;;;0.50;;
22388;SDS011;11362;48.102;11.620;2023-03-11T05:24:31;0.83;;;0.30;;
22388;SDS011;11362;48.102;11.620;2023-03-11T05:26:57;0.37;;;0.37;;
22388;SDS011;11362;48.102;11.620;2023-03-11T05:29:23;0.33;;;0.10;;
22388;SDS011;11362;48.102;11.620;2023-03-11T05:31:49;0.23;;;0.23;;
22388;SDS011;11362;48.102;11.620;2023-03-11T05:34:14;0.63;;;0.40;;
22388;SDS011;11362;48.102;11.620;2023-03-11T05:36:40;0.30;;;0.30;;
22388;SDS011;11362;48.102;11.620;2023-03-11T05:39:06;0.13;;;0.13;;
22388;SDS011;11362;48.102;11.620;2023-03-11T05:41:32;0.30;;;0.30;;
22388;SDS011;11362;48.102;11.620;2023-03-11T05:43:57;0.40;;;0.40;;
22388;SDS011;11362;48.102;11.620;2023-03-11T05:46:23;0.43;;;0.30;;
22388;SDS011;11362;48.102;11.620;2023-03-11T05:48:49;0.13;;;0.10;;
22388;SDS011;11362;48.102;11.620;2023-03-11T05:51:14;0.40;;;0.20;;
22388;SDS011;11362;48.102;11.620;2023-03-11T05:53:44;0.37;;;0.20;;
22388;SDS011;11362;48.102;11.620;2023-03-11T05:56:10;0.47;;;0.20;;
22388;SDS011;11362;48.102;11.620;2023-03-11T05:58:36;0.40;;;0.20;;
22388;SDS011;11362;48.102;11.620;2023-03-11T06:01:05;0.30;;;0.30;;
22388;SDS011;11362;48.102;11.620;2023-03-11T06:03:32;1.10;;;0.40;;
22388;SDS011;11362;48.102;11.620;2023-03-11T06:05:57;0.27;;;0.20;;
22388;SDS011;11362;48.102;11.620;2023-03-11T06:08:22;0.20;;;0.20;;
22388;SDS011;11362;48.102;11.620;2023-03-11T06:10:48;0.23;;;0.23;;
22388;SDS011;11362;48.102;11.620;2023-03-11T06:13:13;0.50;;;0.30;;
22388;SDS011;11362;48.102;11.620;2023-03-11T06:15:38;0.20;;;0.20;;
22388;SDS011;11362;48.102;11.620;2023-03-11T06:18:04;0.40;;;0.10;;
22388;SDS011;11362;48.102;11.620;2023-03-11T06:20:29;0.33;;;0.20;;
22388;SDS011;11362;48.102;11.620;2023-03-11T06:22:55;0.30;;;0.30;;
22388;SDS011;11362;48.102;11.620;2023-03-11T06:25:20;1.23;;;0.43;;
22388;SDS011;11362;48.102;11.620;2023-03-11T06:27:49;2.93;;;0.63;;
22388;SDS011;11362;48.102;11.620;2023-03-11T06:30:16;1.83;;;0.67;;
22388;SDS011;11362;48.102;11.620;2023-03-11T06:32:42;7.07;;;1.27;;
22388;SDS011;11362;48.102;11.620;2023-03-11T06:35:09;10.03;;;1.67;;
22388;SDS011;11362;48.102;11.620;2023-03-11T06:37:35;23.20;;;3.07;;
22388;SDS011;11362;48.102;11.620;2023-03-11T06:40:01;11.43;;;1.97;;
22388;SDS011;11362;48.102;11.620;2023-03-11T06:42:26;9.17;;;1.80;;
22388;SDS011;11362;48.102;11.620;2023-03-11T06:44:52;13.97;;;2.33;;
22388;SDS011;11362;48.102;11.620;2023-03-11T06:47:17;15.90;;;2.40;;
22388;SDS011;11362;48.102;11.620;2023-03-11T06:49:42;16.47;;;2.53;;
22388;SDS011;11362;48.102;11.620;2023-03-11T06:52:08;7.97;;;1.70;;
22388;SDS011;11362;48.102;11.620;2023-03-11T06:54:33;10.77;;;2.67;;
22388;SDS011;11362;48.102;11.620;2023-03-11T06:56:59;13.60;;;2.70;;
22388;SDS011;11362;48.102;11.620;2023-03-11T06:59:24;15.47;;;2.40;;
22388;SDS011;11362;48.102;11.620;2023-03-11T07:01:50;13.73;;;2.57;;
22388;SDS011;11362;48.102;11.620;2023-03-11T07:04:15;12.70;;;1.97;;
22388;SDS011;11362;48.102;11.620;2023-03-11T07:06:40;11.63;;;2.27;;
22388;SDS011;11362;48.102;11.620;2023-03-11T07:09:06;15.70;;;2.63;;
22388;SDS011;11362;48.102;11.620;2023-03-11T07:11:31;13.80;;;2.40;;
22388;SDS011;11362;48.102;11.620;2023-03-11T07:13:57;10.63;;;2.40;;
22388;SDS011;11362;48.102;11.620;2023-03-11T07:16:24;8.83;;;1.90;;
22388;SDS011;11362;48.102;11.620;2023-03-11T07:18:50;5.83;;;2.00;;
22388;SDS011;11362;48.102;11.620;2023-03-11T07:21:18;7.53;;;1.97;;
22388;SDS011;11362;48.102;11.620;2023-03-11T07:23:45;12.80;;;2.40;;
22388;SDS011;11362;48.102;11.620;2023-03-11T07:26:12;10.97;;;1.90;;
22388;SDS011;11362;48.102;11.620;2023-03-11T07:28:38;13.40;;;2.80;;
22388;SDS011;11362;48.102;11.620;2023-03-11T07:31:08;5.70;;;2.03;;
22388;SDS011;11362;48.102;11.620;2023-03-11T07:33:34;14.97;;;2.87;;
22388;SDS011;11362;48.102;11.620;2023-03-11T07:36:03;9.87;;;2.60;;
22388;SDS011;11362;48.102;11.620;2023-03-11T07:38:30;14.07;;;2.23;;
22388;SDS011;11362;48.102;11.620;2023-03-11T07:40:58;13.07;;;2.03;;
22388;SDS011;11362;48.102;11.620;2023-03-11T07:43:24;7.07;;;2.37;;
22388;SDS011;11362;48.102;11.620;2023-03-11T07:45:49;6.50;;;1.80;;
22388;SDS011;11362;48.102;11.620;2023-03-11T07:48:14;15.07;;;2.80;;
22388;SDS011;11362;48.102;11.620;2023-03-11T07:50:40;11.00;;;2.20;;
22388;SDS011;11362;48.102;11.620;2023-03-11T07:53:05;8.00;;;2.20;;
22388;SDS011;11362;48.102;11.620;2023-03-11T07:55:30;7.80;;;1.70;;
22388;SDS011;11362;48.102;11.620;2023-03-11T07:57:56;12.80;;;2.20;;
22388;SDS011;11362;48.102;11.620;2023-03-11T08:00:21;7.43;;;2.00;;
22388;SDS011;11362;48.102;11.620;2023-03-11T08:02:46;6.23;;;1.67;;
22388;SDS011;11362;48.102;11.620;2023-03-11T08:05:12;7.27;;;1.50;;
22388;SDS011;11362;48.102;11.620;2023-03-11T08:07:37;7.03;;;1.80;;
22388;SDS011;11362;48.102;11.620;2023-03-11T08:10:02;7.77;;;2.27;;
22388;SDS011;11362;48.102;11.620;2023-03-11T08:12:28;5.20;;;1.17;;
22388;SDS011;11362;48.102;11.620;2023-03-11T08:14:53;6.03;;;1.97;;
22388;SDS011;11362;48.102;11.620;2023-03-11T08:17:18;4.07;;;1.63;;
22388;SDS011;11362;48.102;11.620;2023-03-11T08:19:43;6.67;;;1.30;;
22388;SDS011;11362;48.102;11.620;2023-03-11T08:22:09;3.63;;;1.50;;
22388;SDS011;11362;48.102;11.620;2023-03-11T08:24:34;5.40;;;1.50;;
22388;SDS011;11362;48.102;11.620;2023-03-11T08:26:59;7.30;;;1.47;;
22388;SDS011;11362;48.102;11.620;2023-03-11T08:29:25;6.53;;;1.73;;
22388;SDS011;11362;48.102;11.620;2023-03-11T08:31:50;4.63;;;1.50;;
22388;SDS011;11362;48.102;11.620;2023-03-11T08:34:15;5.13;;;1.43;;
22388;SDS011;11362;48.102;11.620;2023-03-11T08:36:41;4.60;;;1.40;;
22388;SDS011;11362;48.102;11.620;2023-03-11T08:39:06;5.43;;;1.80;;
22388;SDS011;11362;48.102;11.620;2023-03-11T08:41:32;5.97;;;1.23;;
22388;SDS011;11362;48.102;11.620;2023-03-11T08:43:57;3.87;;;1.20;;
22388;SDS011;11362;48.102;11.620;2023-03-11T08:46:27;3.10;;;1.30;;
22388;SDS011;11362;48.102;11.620;2023-03-11T08:48:54;7.10;;;1.20;;
22388;SDS011;11362;48.102;11.620;2023-03-11T08:51:20;2.23;;;1.10;;
22388;SDS011;11362;48.102;11.620;2023-03-11T08:53:47;1.87;;;0.90;;
22388;SDS011;11362;48.102;11.620;2023-03-11T08:56:12;3.50;;;1.00;;
22388;SDS011;11362;48.102;11.620;2023-03-11T08:58:37;2.70;;;1.00;;
22388;SDS011;11362;48.102;11.620;2023-03-11T09:01:03;5.37;;;1.07;;
22388;SDS011;11362;48.102;11.620;2023-03-11T09:03:30;2.10;;;0.90;;
22388;SDS011;11362;48.102;11.620;2023-03-11T09:05:59;1.53;;;0.70;;
22388;SDS011;11362;48.102;11.620;2023-03-11T09:08:26;1.43;;;0.87;;
22388;SDS011;11362;48.102;11.620;2023-03-11T09:10:52;5.03;;;1.23;;
22388;SDS011;11362;48.102;11.620;2023-03-11T09:13:17;3.80;;;1.10;;
22388;SDS011;11362;48.102;11.620;2023-03-11T09:15:43;1.87;;;1.13;;
22388;SDS011;11362;48.102;11.620;2023-03-11T09:18:12;2.63;;;1.10;;
22388;SDS011;11362;48.102;11.620;2023-03-11T09:20:38;1.97;;;0.80;;
22388;SDS011;11362;48.102;11.620;2023-03-11T09:23:04;1.00;;;0.73;;
22388;SDS011;11362;48.102;11.620;2023-03-11T09:25:30;2.00;;;0.93;;
22388;SDS011;11362;48.102;11.620;2023-03-11T09:27:55;3.77;;;0.90;;
22388;SDS011;11362;48.102;11.620;2023-03-11T09:30:20;2.10;;;0.40;;
22388;SDS011;11362;48.102;11.620;2023-03-11T09:32:46;1.87;;;0.60;;
22388;SDS011;11362;48.102;11.620;2023-03-11T09:35:11;1.90;;;0.97;;
22388;SDS011;11362;48.102;11.620;2023-03-11T09:37:37;0.63;;;0.63;;
22388;SDS011;11362;48.102;11.620;2023-03-11T09:40:02;2.47;;;0.70;;
22388;SDS011;11362;48.102;11.620;2023-03-11T09:42:42;2.67;;;1.27;;
22388;SDS011;11362;48.102;11.620;2023-03-11T09:45:17;2.70;;;0.80;;
22388;SDS011;11362;48.102;11.620;2023-03-11T09:48:02;0.77;;;0.50;;
22388;SDS011;11362;48.102;11.620;2023-03-11T09:50:57;1.73;;;0.90;;
22388;SDS011;11362;48.102;11.620;2023-03-11T09:56:12;0.67;;;0.50;;
22388;SDS011;11362;48.102;11.620;2023-03-11T09:58:43;1.27;;;0.63;;
22388;SDS011;11362;48.102;11.620;2023-03-11T10:01:23;1.40;;;0.57;;
22388;SDS011;11362;48.102;11.620;2023-03-11T10:03:53;1.57;;;0.67;;
22388;SDS011;11362;48.102;11.620;2023-03-11T10:06:28;1.00;;;0.90;;
22388;SDS011;11362;48.102;11.620;2023-03-11T10:25:53;1.93;;;0.80;;
22388;SDS011;11362;48.102;11.620;2023-03-11T10:31:54;1.80;;;0.60;;
22388;SDS011;11362;48.102;11.620;2023-03-11T10:34:33;1.13;;;0.60;;
22388;SDS011;11362;48.102;11.620;2023-03-11T10:37:05;0.40;;;0.40;;
22388;SDS011;11362;48.102;11.620;2023-03-11T10:39:38;1.33;;;0.60;;
22388;SDS011;11362;48.102;11.620;2023-03-11T10:42:05;1.57;;;0.50;;
22388;SDS011;11362;48.102;11.620;2023-03-11T10:44:38;1.57;;;0.90;;
22388;SDS011;11362;48.102;11.620;2023-03-11T10:47:05;0.60;;;0.50;;
22388;SDS011;11362;48.102;11.620;2023-03-11T10:49:44;0.70;;;0.50;;
22388;SDS011;11362;48.102;11.620;2023-03-11T10:52:10;0.70;;;0.60;;
22388;SDS011;11362;48.102;11.620;2023-03-11T10:54:37;0.60;;;0.60;;
22388;SDS011;11362;48.102;11.620;2023-03-11T10:57:08;0.50;;;0.50;;
22388;SDS011;11362;48.102;11.620;2023-03-11T10:59:51;1.27;;;0.30;;
22388;SDS011;11362;48.102;11.620;2023-03-11T11:02:25;0.53;;;0.50;;
22388;SDS011;11362;48.102;11.620;2023-03-11T11:05:04;1.40;;;0.70;;
22388;SDS011;11362;48.102;11.620;2023-03-11T11:07:31;0.53;;;0.53;;
22388;SDS011;11362;48.102;11.620;2023-03-11T11:15:20;0.70;;;0.60;;
22388;SDS011;11362;48.102;11.620;2023-03-11T11:17:51;0.77;;;0.50;;
22388;SDS011;11362;48.102;11.620;2023-03-11T11:20:18;0.60;;;0.60;;
22388;SDS011;11362;48.102;11.620;2023-03-11T11:22:51;1.07;;;0.50;;
22388;SDS011;11362;48.102;11.620;2023-03-11T11:25:37;0.70;;;0.40;;
22388;SDS011;11362;48.102;11.620;2023-03-11T11:28:17;0.30;;;0.30;;
22388;SDS011;11362;48.102;11.620;2023-03-11T11:33:28;0.50;;;0.50;;
22388;SDS011;11362;48.102;11.620;2023-03-11T11:35:56;0.50;;;0.20;;
22388;SDS011;11362;48.102;11.620;2023-03-11T11:38:24;0.73;;;0.50;;
22388;SDS011;11362;48.102;11.620;2023-03-11T11:40:51;0.23;;;0.23;;
22388;SDS011;11362;48.102;11.620;2023-03-11T11:43:20;0.50;;;0.50;;
22388;SDS011;11362;48.102;11.620;2023-03-11T11:45:53;0.97;;;0.50;;
22388;SDS011;11362;48.102;11.620;2023-03-11T11:51:19;0.97;;;0.40;;
22388;SDS011;11362;48.102;11.620;2023-03-11T11:53:56;0.43;;;0.43;;
22388;SDS011;11362;48.102;11.620;2023-03-11T11:56:25;1.53;;;0.47;;
22388;SDS011;11362;48.102;11.620;2023-03-11T11:58:51;0.50;;;0.30;;
22388;SDS011;11362;48.102;11.620;2023-03-11T12:09:58;48.30;;;20.63;;
22388;SDS011;11362;48.102;11.620;2023-03-11T12:15:14;27.73;;;15.17;;
22388;SDS011;11362;48.102;11.620;2023-03-11T12:17:44;28.67;;;13.37;;
22388;SDS011;11362;48.102;11.620;2023-03-11T12:23:10;31.87;;;12.03;;
22388;SDS011;11362;48.102;11.620;2023-03-11T12:25:39;32.50;;;11.40;;
22388;SDS011;11362;48.102;11.620;2023-03-11T12:28:23;29.23;;;10.27;;
22388;SDS011;11362;48.102;11.620;2023-03-11T12:30:55;34.70;;;9.83;;
22388;SDS011;11362;48.102;11.620;2023-03-11T12:33:31;23.20;;;9.20;;
22388;SDS011;11362;48.102;11.620;2023-03-11T12:35:59;25.80;;;9.27;;
22388;SDS011;11362;48.102;11.620;2023-03-11T12:41:25;23.83;;;8.17;;
22388;SDS011;11362;48.102;11.620;2023-03-11T12:46:22;28.50;;;8.27;;
22388;SDS011;11362;48.102;11.620;2023-03-11T12:52:02;27.73;;;7.20;;
22388;SDS011;11362;48.102;11.620;2023-03-11T12:54:35;18.80;;;6.73;;
22388;SDS011;11362;48.102;11.620;2023-03-11T13:08:26;41.63;;;7.87;;
22388;SDS011;11362;48.102;11.620;2023-03-11T13:11:01;33.63;;;7.33;;
22388;SDS011;11362;48.102;11.620;2023-03-11T13:14:09;30.23;;;6.33;;
22388;SDS011;11362;48.102;11.620;2023-03-11T13:17:26;28.67;;;6.63;;
22388;SDS011;11362;48.102;11.620;2023-03-11T13:19:54;38.87;;;7.37;;
22388;SDS011;11362;48.102;11.620;2023-03-11T13:22:41;28.17;;;6.63;;
22388;SDS011;11362;48.102;11.620;2023-03-11T13:25:26;34.00;;;6.50;;
22388;SDS011;11362;48.102;11.620;2023-03-11T13:28:21;37.43;;;7.13;;
22388;SDS011;11362;48.102;11.620;2023-03-11T13:31:07;25.67;;;6.50;;
22388;SDS011;11362;48.102;11.620;2023-03-11T13:33:41;38.83;;;7.43;;
22388;SDS011;11362;48.102;11.620;2023-03-11T13:38:57;34.67;;;7.47;;
22388;SDS011;11362;48.102;11.620;2023-03-11T13:41:32;34.73;;;6.57;;
22388;SDS011;11362;48.102;11.620;2023-03-11T13:44:09;42.07;;;7.33;;
22388;SDS011;11362;48.102;11.620;2023-03-11T13:46:39;43.23;;;8.67;;
22388;SDS011;11362;48.102;11.620;2023-03-11T13:51:39;33.37;;;6.33;;
22388;SDS011;11362;48.102;11.620;2023-03-11T13:56:43;25.40;;;5.13;;
22388;SDS011;11362;48.102;11.620;2023-03-11T13:59:30;19.93;;;4.27;;
22388;SDS011;11362;48.102;11.620;2023-03-11T14:02:03;18.07;;;4.10;;
22388;SDS011;11362;48.102;11.620;2023-03-11T14:04:40;18.10;;;4.70;;
22388;SDS011;11362;48.102;11.620;2023-03-11T14:07:32;16.97;;;3.00;;
22388;SDS011;11362;48.102;11.620;2023-03-11T14:12:35;12.57;;;3.87;;
22388;SDS011;11362;48.102;11.620;2023-03-11T14:15:01;15.50;;;3.40;;
22388;SDS011;11362;48.102;11.620;2023-03-11T14:17:31;11.57;;;3.70;;
22388;SDS011;11362;48.102;11.620;2023-03-11T14:20:03;19.10;;;3.53;;
22388;SDS011;11362;48.102;11.620;2023-03-11T14:22:35;14.60;;;3.87;;
22388;SDS011;11362;48.102;11.620;2023-03-11T14:25:01;14.77;;;3.27;;
22388;SDS011;11362;48.102;11.620;2023-03-11T14:27:33;12.53;;;3.70;;
22388;SDS011;11362;48.102;11.620;2023-03-11T14:29:59;12.90;;;3.90;;
22388;SDS011;11362;48.102;11.620;2023-03-11T14:32:28;8.50;;;3.50;;
22388;SDS011;11362;48.102;11.620;2023-03-11T14:34:56;13.40;;;3.00;;
22388;SDS011;11362;48.102;11.620;2023-03-11T14:37:26;6.03;;;2.57;;
22388;SDS011;11362;48.102;11.620;2023-03-11T14:39:55;10.27;;;2.80;;
22388;SDS011;11362;48.102;11.620;2023-03-11T14:42:32;8.53;;;2.77;;
22388;SDS011;11362;48.102;11.620;2023-03-11T14:50:26;10.73;;;2.30;;
22388;SDS011;11362;48.102;11.620;2023-03-11T14:52:58;10.53;;;2.70;;
22388;SDS011;11362;48.102;11.620;2023-03-11T14:55:30;10.73;;;2.17;;
22388;SDS011;11362;48.102;11.620;2023-03-11T14:58:12;15.07;;;2.73;;
22388;SDS011;11362;48.102;11.620;2023-03-11T15:00:48;9.97;;;2.60;;
22388;SDS011;11362;48.102;11.620;2023-03-11T15:03:23;6.27;;;2.27;;
22388;SDS011;11362;48.102;11.620;2023-03-11T15:08:43;8.60;;;2.00;;
22388;SDS011;11362;48.102;11.620;2023-03-11T15:13:37;5.23;;;2.03;;
22388;SDS011;11362;48.102;11.620;2023-03-11T15:16:51;8.87;;;1.93;;
22388;SDS011;11362;48.102;11.620;2023-03-11T15:21:51;9.73;;;2.73;;
22388;SDS011;11362;48.102;11.620;2023-03-11T15:24:21;13.03;;;2.70;;
22388;SDS011;11362;48.102;11.620;2023-03-11T15:26:52;10.50;;;2.33;;
22388;SDS011;11362;48.102;11.620;2023-03-11T15:29:19;20.97;;;5.90;;
22388;SDS011;11362;48.102;11.620;2023-03-11T15:31:45;25.00;;;8.80;;
22388;SDS011;11362;48.102;11.620;2023-03-11T15:41:47;53.10;;;16.33;;
22388;SDS011;11362;48.102;11.620;2023-03-11T15:44:24;44.87;;;14.07;;
22388;SDS011;11362;48.102;11.620;2023-03-11T15:46:55;45.67;;;14.07;;
22388;SDS011;11362;48.102;11.620;2023-03-11T15:49:21;53.23;;;14.33;;
22388;SDS011;11362;48.102;11.620;2023-03-11T15:51:46;46.10;;;14.23;;
22388;SDS011;11362;48.102;11.620;2023-03-11T15:54:11;36.07;;;12.00;;
22388;SDS011;11362;48.102;11.620;2023-03-11T15:56:40;33.30;;;12.30;;
22388;SDS011;11362;48.102;11.620;2023-03-11T15:59:06;33.53;;;13.60;;
22388;SDS011;11362;48.102;11.620;2023-03-11T16:01:43;33.17;;;11.73;;
22388;SDS011;11362;48.102;11.620;2023-03-11T16:04:16;32.17;;;11.37;;
22388;SDS011;11362;48.102;11.620;2023-03-11T16:06:43;31.07;;;9.73;;
22388;SDS011;11362;48.102;11.620;2023-03-11T16:09:10;22.47;;;8.97;;
22388;SDS011;11362;48.102;11.620;2023-03-11T16:11:36;30.03;;;8.33;;
22388;SDS011;11362;48.102;11.620;2023-03-11T16:14:03;21.87;;;8.50;;
22388;SDS011;11362;48.102;11.620;2023-03-11T16:16:29;18.30;;;7.53;;
22388;SDS011;11362;48.102;11.620;2023-03-11T16:18:55;30.27;;;9.97;;
22388;SDS011;11362;48.102;11.620;2023-03-11T16:21:21;33.43;;;9.00;;